createdAt,value
2019-04-04T00:00:55.023Z,24.30
2019-04-04T00:03:59.325Z,24.30
2019-04-04T00:07:02.587Z,24.30
2019-04-04T00:10:06.577Z,24.20
2019-04-04T00:13:11.126Z,24.30
2019-04-04T00:16:16.092Z,24.30
2019-04-04T00:19:19.889Z,24.20
2019-04-04T00:22:23.197Z,24.20
2019-04-04T00:25:29.441Z,24.20
2019-04-04T00:28:32.693Z,24.20
2019-04-04T00:31:36.994Z,24.20
2019-04-04T00:34:41.290Z,24.20
2019-04-04T00:37:44.589Z,24.20
2019-04-04T00:40:49.836Z,24.20
2019-04-04T00:43:53.154Z,24.20
2019-04-04T00:46:57.349Z,24.20
2019-04-04T00:50:00.626Z,24.20
2019-04-04T00:53:12.362Z,24.20
2019-04-04T00:56:16.093Z,24.20
2019-04-04T00:59:23.719Z,24.20
2019-04-04T01:02:29.867Z,24.20
2019-04-04T01:05:34.196Z,24.20
2019-04-04T01:08:38.845Z,24.20
2019-04-04T01:11:42.361Z,24.20
2019-04-04T01:14:45.658Z,24.20
2019-04-04T01:17:48.910Z,24.20
2019-04-04T01:20:54.093Z,24.20
2019-04-04T01:23:58.359Z,24.10
2019-04-04T01:27:04.192Z,24.10
2019-04-04T01:30:07.246Z,24.10
2019-04-04T01:33:10.558Z,24.10
2019-04-04T01:36:13.877Z,24.10
2019-04-04T01:39:20.202Z,24.10
2019-04-04T01:42:29.447Z,24.10
2019-04-04T01:45:32.712Z,24.10
2019-04-04T01:48:35.989Z,24.10
2019-04-04T01:51:39.233Z,24.10
2019-04-04T01:54:42.477Z,24.10
2019-04-04T01:57:47.681Z,24.10
2019-04-04T02:00:50.924Z,24.10
2019-04-04T02:03:54.231Z,24.10
2019-04-04T02:06:59.170Z,24.10
2019-04-04T02:10:03.238Z,24.10
2019-04-04T02:13:09.835Z,24.10
2019-04-04T02:16:19.837Z,24.10
2019-04-04T02:19:24.831Z,24.10
2019-04-04T02:22:31.014Z,24.10
2019-04-04T02:25:35.881Z,24.10
2019-04-04T02:28:40.002Z,24.10
2019-04-04T02:31:45.585Z,24.10
2019-04-04T02:34:50.715Z,24.00
2019-04-04T02:37:55.567Z,24.00
2019-04-04T02:41:00.832Z,24.00
2019-04-04T02:44:05.239Z,24.00
2019-04-04T02:47:08.688Z,24.00
2019-04-04T02:50:11.918Z,23.10
2019-04-04T02:53:19.456Z,24.00
2019-04-04T02:56:20.139Z,24.00
2019-04-04T02:59:24.359Z,24.00
2019-04-04T03:02:27.655Z,24.00
2019-04-04T03:05:30.990Z,24.00
2019-04-04T03:08:36.779Z,24.00
2019-04-04T03:11:45.214Z,24.00
2019-04-04T03:14:50.922Z,24.00
2019-04-04T03:17:54.428Z,24.00
2019-04-04T03:20:57.705Z,24.00
2019-04-04T03:24:06.152Z,24.00
2019-04-04T03:27:07.994Z,24.00
2019-04-04T03:30:14.322Z,24.00
2019-04-04T03:33:17.102Z,24.00
2019-04-04T03:36:27.110Z,24.00
2019-04-04T03:39:30.390Z,23.90
2019-04-04T03:42:34.726Z,23.90
2019-04-04T03:45:37.974Z,24.00
2019-04-04T03:48:41.350Z,23.90
2019-04-04T03:51:44.596Z,23.90
2019-04-04T03:54:48.815Z,23.90
2019-04-04T03:57:55.146Z,23.90
2019-04-04T04:00:57.089Z,23.90
2019-04-04T04:04:00.342Z,23.90
2019-04-04T04:07:03.583Z,23.90
2019-04-04T04:10:07.868Z,23.90
2019-04-04T04:13:11.217Z,23.90
2019-04-04T04:16:14.513Z,23.90
2019-04-04T04:19:24.539Z,23.90
2019-04-04T04:22:27.312Z,23.90
2019-04-04T04:25:35.362Z,23.90
2019-04-04T04:28:37.590Z,23.90
2019-04-04T04:31:40.958Z,23.90
2019-04-04T04:34:46.114Z,23.90
2019-04-04T04:37:53.311Z,23.90
2019-04-04T04:40:55.412Z,23.90
2019-04-04T04:43:59.683Z,23.90
2019-04-04T04:47:08.602Z,23.90
2019-04-04T04:50:11.844Z,23.90
2019-04-04T04:53:18.308Z,23.90
2019-04-04T04:56:20.104Z,23.90
2019-04-04T04:59:23.414Z,23.90
2019-04-04T05:02:27.688Z,23.90
2019-04-04T05:05:31.869Z,23.90
2019-04-04T05:08:36.204Z,23.90
2019-04-04T05:11:41.439Z,23.90
2019-04-04T05:14:49.660Z,23.90
2019-04-04T05:17:52.932Z,23.90
2019-04-04T05:20:57.542Z,23.90
2019-04-04T05:24:00.989Z,23.90
2019-04-04T05:27:06.133Z,23.80
2019-04-04T05:30:10.011Z,23.80
2019-04-04T05:33:13.251Z,23.90
2019-04-04T05:36:20.133Z,23.80
2019-04-04T05:39:28.975Z,23.90
2019-04-04T05:42:34.206Z,23.90
2019-04-04T05:45:37.554Z,23.80
2019-04-04T05:48:40.881Z,23.80
2019-04-04T05:51:46.282Z,23.80
2019-04-04T05:54:50.180Z,23.80
2019-04-04T05:57:53.425Z,23.80
2019-04-04T06:00:57.840Z,23.80
2019-04-04T06:04:03.776Z,23.80
2019-04-04T06:07:07.217Z,23.80
2019-04-04T06:10:11.958Z,23.80
2019-04-04T06:13:17.513Z,23.80
2019-04-04T06:16:20.760Z,23.80
2019-04-04T06:19:24.047Z,23.80
2019-04-04T06:22:28.385Z,23.80
2019-04-04T06:25:35.649Z,23.80
2019-04-04T06:28:37.564Z,23.80
2019-04-04T06:31:46.666Z,23.80
2019-04-04T06:34:49.949Z,23.80
2019-04-04T06:37:57.144Z,23.80
2019-04-04T06:41:00.960Z,23.80
2019-04-04T06:44:08.858Z,23.80
2019-04-04T06:47:12.118Z,23.80
2019-04-04T06:50:17.508Z,23.80
2019-04-04T06:53:22.266Z,23.80
2019-04-04T06:56:25.793Z,23.80
2019-04-04T06:59:29.048Z,23.80
2019-04-04T07:02:34.353Z,23.80
2019-04-04T07:05:45.450Z,23.80
2019-04-04T07:08:50.809Z,23.80
2019-04-04T07:11:57.168Z,23.80
2019-04-04T07:15:02.501Z,23.80
2019-04-04T07:18:06.824Z,23.80
2019-04-04T07:21:10.061Z,23.80
2019-04-04T07:24:13.312Z,23.80
2019-04-04T07:27:18.556Z,23.80
2019-04-04T07:30:22.017Z,23.80
2019-04-04T07:33:33.921Z,23.80
2019-04-04T07:36:46.866Z,23.80
2019-04-04T07:39:51.180Z,23.80
2019-04-04T07:42:54.484Z,23.80
2019-04-04T07:46:01.405Z,23.80
2019-04-04T07:49:02.785Z,23.90
2019-04-04T07:52:06.064Z,23.80
2019-04-04T07:55:20.189Z,23.90
2019-04-04T07:58:23.480Z,23.90
2019-04-04T08:01:26.799Z,23.90
2019-04-04T08:04:30.064Z,23.90
2019-04-04T08:07:34.393Z,23.90
2019-04-04T08:10:37.668Z,23.90
2019-04-04T08:13:41.987Z,23.90
2019-04-04T08:16:46.249Z,23.90
2019-04-04T08:19:59.481Z,23.90
2019-04-04T08:22:55.435Z,23.90
2019-04-04T08:25:58.748Z,23.90
2019-04-04T08:29:05.621Z,24.00
2019-04-04T08:32:09.000Z,23.90
2019-04-04T08:35:12.282Z,24.00
2019-04-04T08:38:15.514Z,24.00
2019-04-04T08:41:20.680Z,24.00
2019-04-04T08:44:30.747Z,24.00
2019-04-04T08:47:37.088Z,24.00
2019-04-04T08:50:42.230Z,24.00
2019-04-04T08:53:53.762Z,24.00
2019-04-04T08:56:58.047Z,25.00
2019-04-04T09:00:04.421Z,24.00
2019-04-04T09:03:12.613Z,24.00
2019-04-04T09:06:24.720Z,24.00
2019-04-04T09:09:28.047Z,24.00
2019-04-04T09:12:32.332Z,24.10
2019-04-04T09:15:35.649Z,24.00
2019-04-04T09:18:38.927Z,24.00
2019-04-04T09:21:42.279Z,24.00
2019-04-04T09:24:47.604Z,25.00
2019-04-04T09:27:50.965Z,24.10
2019-04-04T09:30:55.201Z,24.10
2019-04-04T09:33:58.476Z,24.10
2019-04-04T09:37:03.612Z,24.10
2019-04-04T09:40:09.072Z,24.10
2019-04-04T09:43:14.357Z,24.10
2019-04-04T09:46:17.646Z,24.10
2019-04-04T09:49:23.719Z,24.10
2019-04-04T09:52:26.981Z,24.10
2019-04-04T09:55:30.293Z,24.10
2019-04-04T09:58:33.521Z,24.20
2019-04-04T10:01:36.781Z,24.20
2019-04-04T10:04:41.061Z,24.20
2019-04-04T10:07:45.397Z,24.20
2019-04-04T10:10:58.547Z,24.20
2019-04-04T10:14:04.130Z,24.20
2019-04-04T10:17:06.798Z,24.20
2019-04-04T10:20:10.088Z,24.20
2019-04-04T10:23:13.353Z,24.20
2019-04-04T10:26:17.663Z,24.20
2019-04-04T10:29:22.824Z,24.30
2019-04-04T10:32:32.874Z,24.70
2019-04-04T10:35:41.898Z,23.60
2019-04-04T10:38:49.329Z,24.30
2019-04-04T10:41:53.667Z,24.30
2019-04-04T10:45:00.633Z,24.30
2019-04-04T10:48:04.277Z,24.40
2019-04-04T10:51:08.250Z,24.40
2019-04-04T10:54:16.843Z,24.40
2019-04-04T10:57:24.289Z,24.40
2019-04-04T11:00:27.604Z,24.40
2019-04-04T11:03:34.559Z,24.40
2019-04-04T11:06:37.899Z,24.40
2019-04-04T11:09:42.325Z,24.40
2019-04-04T11:12:45.644Z,24.40
2019-04-04T11:15:48.985Z,24.50
2019-04-04T11:18:52.221Z,24.50
2019-04-04T11:21:55.517Z,24.50
2019-04-04T11:25:00.908Z,24.50
2019-04-04T11:28:05.715Z,24.50
2019-04-04T11:31:10.233Z,24.50
2019-04-04T11:34:18.102Z,24.50
2019-04-04T11:37:22.462Z,24.60
2019-04-04T11:40:26.225Z,24.60
2019-04-04T11:43:31.488Z,24.60
2019-04-04T11:46:41.441Z,24.60
2019-04-04T11:49:45.663Z,24.70
2019-04-04T11:52:50.772Z,24.70
2019-04-04T11:55:55.112Z,24.70
2019-04-04T11:58:59.415Z,24.70
2019-04-04T12:02:02.767Z,24.70
2019-04-04T12:05:13.531Z,24.70
2019-04-04T12:08:16.756Z,24.80
2019-04-04T12:11:22.447Z,24.80
2019-04-04T12:14:24.994Z,24.80
2019-04-04T12:17:28.411Z,24.80
2019-04-04T12:20:33.568Z,24.80
2019-04-04T12:23:44.238Z,24.90
2019-04-04T12:26:49.170Z,24.90
2019-04-04T12:29:52.472Z,24.90
2019-04-04T12:32:58.859Z,24.90
2019-04-04T12:36:02.155Z,24.90
2019-04-04T12:39:07.789Z,24.90
2019-04-04T12:42:11.106Z,25.00
2019-04-04T12:45:14.733Z,25.00
2019-04-04T12:48:19.009Z,25.00
2019-04-04T12:51:22.340Z,25.00
2019-04-04T12:54:25.634Z,25.00
2019-04-04T12:57:30.965Z,25.00
2019-04-04T13:00:34.264Z,25.00
2019-04-04T13:03:37.532Z,25.10
2019-04-04T13:06:40.870Z,25.10
2019-04-04T13:09:46.926Z,25.10
2019-04-04T13:12:56.521Z,25.10
2019-04-04T13:16:00.924Z,25.20
2019-04-04T13:19:11.040Z,25.20
2019-04-04T13:22:15.340Z,25.20
2019-04-04T13:25:21.136Z,25.20
2019-04-04T13:28:24.423Z,25.20
2019-04-04T13:31:28.709Z,25.20
2019-04-04T13:34:33.050Z,25.20
2019-04-04T13:37:36.373Z,25.20
2019-04-04T13:40:45.849Z,25.20
2019-04-04T13:43:47.487Z,25.20
2019-04-04T13:46:53.084Z,25.30
2019-04-04T13:49:56.605Z,25.30
2019-04-04T13:53:02.510Z,25.30
2019-04-04T13:56:05.767Z,25.30
2019-04-04T13:59:14.740Z,25.30
2019-04-04T14:02:18.064Z,25.40
2019-04-04T14:05:21.381Z,25.40
2019-04-04T14:08:25.752Z,25.30
2019-04-04T14:11:30.039Z,25.40
2019-04-04T14:14:33.803Z,25.40
2019-04-04T14:17:39.997Z,25.40
2019-04-04T14:20:43.431Z,25.40
2019-04-04T14:23:47.809Z,25.40
2019-04-04T14:26:53.022Z,25.40
2019-04-04T14:29:56.391Z,25.40
2019-04-04T14:33:02.745Z,25.50
2019-04-04T14:36:14.327Z,25.50
2019-04-04T14:40:22.136Z,25.50
2019-04-04T14:42:39.923Z,25.50
2019-04-04T14:45:43.173Z,25.50
2019-04-04T14:48:47.436Z,25.60
2019-04-04T14:51:50.760Z,25.60
2019-04-04T14:54:54.016Z,25.60
2019-04-04T14:57:57.390Z,25.60
2019-04-04T15:01:08.611Z,25.60
2019-04-04T15:04:13.690Z,25.60
2019-04-04T15:07:22.809Z,25.60
2019-04-04T15:10:28.725Z,25.60
2019-04-04T15:13:32.048Z,25.60
2019-04-04T15:16:35.330Z,25.70
2019-04-04T15:19:40.241Z,25.90
2019-04-04T15:22:46.676Z,25.70
2019-04-04T15:25:49.985Z,25.70
2019-04-04T15:28:53.236Z,25.70
2019-04-04T15:31:56.503Z,25.70
2019-04-04T15:35:01.710Z,25.70
2019-04-04T15:38:05.044Z,25.70
2019-04-04T15:41:08.367Z,25.70
2019-04-04T15:44:11.639Z,25.80
2019-04-04T15:47:19.234Z,25.80
2019-04-04T15:50:24.081Z,25.80
2019-04-04T15:53:36.013Z,25.80
2019-04-04T15:56:39.480Z,25.80
2019-04-04T15:59:42.863Z,25.80
2019-04-04T16:02:46.513Z,25.80
2019-04-04T16:05:56.853Z,25.80
2019-04-04T16:09:03.211Z,25.80
2019-04-04T16:12:06.490Z,25.80
2019-04-04T16:15:10.721Z,25.80
2019-04-04T16:18:15.644Z,25.80
2019-04-04T16:21:18.942Z,25.80
2019-04-04T16:24:22.243Z,25.80
2019-04-04T16:27:25.528Z,25.80
2019-04-04T16:30:30.685Z,25.80
2019-04-04T16:33:39.746Z,25.80
2019-04-04T16:36:44.026Z,25.80
2019-04-04T16:39:47.335Z,25.80
2019-04-04T16:42:50.634Z,25.80
2019-04-04T16:45:53.922Z,25.80
2019-04-04T16:48:58.851Z,25.80
2019-04-04T16:52:03.212Z,26.30
2019-04-04T16:55:06.602Z,25.70
2019-04-04T16:58:11.943Z,25.70
2019-04-04T17:01:18.250Z,25.70
2019-04-04T17:04:21.512Z,25.70
2019-04-04T17:07:24.840Z,25.70
2019-04-04T17:10:30.144Z,25.70
2019-04-04T17:13:36.077Z,25.70
2019-04-04T17:16:40.425Z,25.70
2019-04-04T17:19:43.712Z,25.60
2019-04-04T17:22:48.013Z,25.60
2019-04-04T17:25:57.065Z,25.60
2019-04-04T17:29:00.350Z,25.60
2019-04-04T17:32:04.689Z,25.60
2019-04-04T17:35:08.565Z,25.60
2019-04-04T17:38:11.947Z,25.60
2019-04-04T17:41:16.216Z,25.60
2019-04-04T17:44:19.520Z,25.60
2019-04-04T17:47:27.174Z,25.60
2019-04-04T17:50:30.491Z,25.50
2019-04-04T17:53:36.392Z,25.50
2019-04-04T17:56:42.119Z,25.50
2019-04-04T17:59:45.417Z,25.50
2019-04-04T18:02:48.718Z,25.50
2019-04-04T18:05:52.001Z,25.50
2019-04-04T18:08:55.382Z,25.50
2019-04-04T18:12:04.509Z,25.50
2019-04-04T18:15:13.474Z,25.50
2019-04-04T18:18:19.655Z,25.50
2019-04-04T18:21:23.841Z,25.40
2019-04-04T18:24:27.142Z,25.40
2019-04-04T18:27:30.459Z,25.40
2019-04-04T18:30:33.725Z,25.40
2019-04-04T18:33:40.160Z,25.40
2019-04-04T18:36:43.736Z,24.60
2019-04-04T18:39:47.912Z,25.40
2019-04-04T18:42:53.847Z,25.40
2019-04-04T18:45:57.244Z,25.40
2019-04-04T18:49:00.508Z,25.40
2019-04-04T18:52:08.453Z,25.40
2019-04-04T18:58:34.504Z,25.40
2019-04-04T19:05:10.873Z,25.40
2019-04-04T19:08:42.401Z,25.30
2019-04-04T19:11:48.733Z,25.30
2019-04-04T19:14:52.039Z,25.30
2019-04-04T19:17:58.019Z,25.30
2019-04-04T19:21:01.307Z,25.30
2019-04-04T19:24:04.738Z,25.30
2019-04-04T19:27:08.108Z,25.30
2019-04-04T19:30:11.414Z,25.30
2019-04-04T19:33:14.689Z,25.30
2019-04-04T19:36:18.988Z,25.30
2019-04-04T19:39:24.343Z,25.30
2019-04-04T19:42:27.625Z,25.40
2019-04-04T19:45:34.844Z,25.40
2019-04-04T19:48:40.795Z,25.40
2019-04-04T19:51:44.133Z,25.40
2019-04-04T19:54:47.388Z,25.40
2019-04-04T19:57:50.656Z,25.40
2019-04-04T20:00:57.023Z,25.40
2019-04-04T20:04:00.332Z,25.40
2019-04-04T20:07:03.847Z,25.40
2019-04-04T20:10:07.365Z,25.40
2019-04-04T20:13:10.660Z,25.40
2019-04-04T20:16:13.968Z,25.40
2019-04-04T20:19:17.410Z,25.40
2019-04-04T20:22:25.856Z,25.40
2019-04-04T20:25:29.167Z,25.40
2019-04-04T20:28:32.429Z,25.30
2019-04-04T20:31:37.668Z,25.30
2019-04-04T20:34:40.921Z,25.30
2019-04-04T20:37:51.163Z,25.30
2019-04-04T20:40:54.425Z,25.30
2019-04-04T20:43:58.823Z,25.30
2019-04-04T20:47:03.085Z,25.30
2019-04-04T20:50:08.423Z,25.30
2019-04-04T20:53:11.707Z,25.30
2019-04-04T20:56:16.560Z,25.30
2019-04-04T20:59:28.203Z,25.20
2019-04-04T21:02:31.628Z,25.20
2019-04-04T21:05:34.889Z,25.30
2019-04-04T21:08:39.880Z,25.20
2019-04-04T21:11:43.140Z,25.20
2019-04-04T21:14:46.438Z,25.20
2019-04-04T21:17:55.682Z,25.20
2019-04-04T21:21:00.012Z,25.20
2019-04-04T21:24:03.336Z,25.20
2019-04-04T21:27:06.624Z,25.20
2019-04-04T21:30:09.894Z,25.20
2019-04-04T21:33:13.196Z,25.20
2019-04-04T21:36:17.539Z,25.10
2019-04-04T21:39:22.029Z,25.10
2019-04-04T21:42:25.327Z,25.10
2019-04-04T21:45:29.638Z,25.10
2019-04-04T21:48:34.006Z,25.10
2019-04-04T21:51:37.306Z,25.10
2019-04-04T21:54:41.577Z,25.10
2019-04-04T21:57:51.860Z,25.10
2019-04-04T22:00:55.148Z,25.10
2019-04-04T22:04:00.384Z,25.00
2019-04-04T22:07:03.669Z,25.00
2019-04-04T22:10:08.640Z,25.00
2019-04-04T22:13:11.882Z,25.00
2019-04-04T22:16:15.146Z,25.00
2019-04-04T22:19:18.399Z,25.00
2019-04-04T22:22:23.541Z,25.00
2019-04-04T22:25:26.862Z,25.00
2019-04-04T22:28:33.418Z,25.00
2019-04-04T22:31:37.618Z,25.00
2019-04-04T22:34:40.865Z,25.00
2019-04-04T22:37:44.142Z,25.00
2019-04-04T22:40:47.404Z,25.00
2019-04-04T22:44:02.850Z,25.00
2019-04-04T22:46:57.528Z,25.00
2019-04-04T22:50:03.008Z,24.90
2019-04-04T22:53:07.273Z,24.90
2019-04-04T22:56:10.525Z,24.90
2019-04-04T22:59:13.790Z,24.90
2019-04-04T23:02:17.047Z,24.90
2019-04-04T23:05:20.332Z,24.90
2019-04-04T23:08:23.673Z,24.90
2019-04-04T23:11:26.922Z,24.90
2019-04-04T23:14:30.168Z,24.90
2019-04-04T23:17:34.368Z,24.90
2019-04-04T23:20:37.667Z,24.90
2019-04-04T23:23:44.832Z,24.90
2019-04-04T23:26:49.045Z,24.90
2019-04-04T23:29:52.297Z,24.90
2019-04-04T23:32:55.558Z,24.90
2019-04-04T23:36:00.883Z,24.90
2019-04-04T23:39:06.173Z,24.90
2019-04-04T23:42:11.365Z,24.90
2019-04-04T23:45:20.330Z,24.90
2019-04-04T23:48:25.562Z,24.80
2019-04-04T23:51:30.778Z,24.80
2019-04-04T23:54:34.912Z,24.80
2019-04-04T23:57:47.111Z,24.80
